createdAt,value
2023-01-21T00:01:05.061Z,32.10
2023-01-21T00:03:31.974Z,34.10
2023-01-21T00:05:58.909Z,32.80
2023-01-21T00:08:26.629Z,33.00
2023-01-21T00:10:53.961Z,33.10
2023-01-21T00:13:20.990Z,32.10
2023-01-21T00:15:47.898Z,32.20
2023-01-21T00:18:14.696Z,32.60
2023-01-21T00:20:41.647Z,29.30
2023-01-21T00:23:10.798Z,30.20
2023-01-21T00:25:37.733Z,30.70
2023-01-21T00:28:04.627Z,31.20
2023-01-21T00:30:31.507Z,26.90
2023-01-21T00:32:58.426Z,25.60
2023-01-21T00:35:25.193Z,26.30
2023-01-21T00:37:52.470Z,27.60
2023-01-21T00:40:19.467Z,26.40
2023-01-21T00:42:46.296Z,26.10
2023-01-21T00:45:13.100Z,26.30
2023-01-21T00:47:40.147Z,26.80
2023-01-21T00:50:08.838Z,27.90
2023-01-21T00:52:36.184Z,26.20
2023-01-21T00:55:03.229Z,24.00
2023-01-21T00:57:30.389Z,24.90
2023-01-21T00:59:57.661Z,25.60
2023-01-21T01:02:24.524Z,25.90
2023-01-21T01:04:51.384Z,25.50
2023-01-21T01:07:18.189Z,25.50
2023-01-21T01:09:44.960Z,26.70
2023-01-21T01:12:11.710Z,26.00
2023-01-21T01:14:38.487Z,26.30
2023-01-21T01:17:05.328Z,24.20
2023-01-21T01:19:32.180Z,23.40
2023-01-21T01:21:58.961Z,25.70
2023-01-21T01:24:25.855Z,25.50
2023-01-21T01:26:52.708Z,23.30
2023-01-21T01:29:19.523Z,24.50
2023-01-21T01:31:46.436Z,26.00
2023-01-21T01:34:13.309Z,24.20
2023-01-21T01:36:40.175Z,25.30
2023-01-21T01:39:07.832Z,23.40
2023-01-21T01:41:35.490Z,22.70
2023-01-21T01:44:06.478Z,24.00
2023-01-21T01:46:35.239Z,23.30
2023-01-21T01:49:09.709Z,24.10
2023-01-21T01:51:58.161Z,23.40
2023-01-21T01:54:28.532Z,24.90
2023-01-21T01:56:56.468Z,24.10
2023-01-21T01:59:23.310Z,23.50
2023-01-21T02:01:50.137Z,22.70
2023-01-21T02:04:20.167Z,22.70
2023-01-21T02:06:47.395Z,22.80
2023-01-21T02:09:14.142Z,23.10
2023-01-21T02:11:40.935Z,23.80
2023-01-21T02:14:07.722Z,21.70
2023-01-21T02:16:47.468Z,22.20
2023-01-21T02:19:39.742Z,22.50
2023-01-21T02:22:21.845Z,23.30
2023-01-21T02:25:26.685Z,22.10
2023-01-21T02:28:08.885Z,22.20
2023-01-21T02:30:57.616Z,24.10
2023-01-21T02:33:45.581Z,23.80
2023-01-21T02:36:27.191Z,23.00
2023-01-21T02:39:10.043Z,21.70
2023-01-21T02:41:58.265Z,22.90
2023-01-21T02:44:27.834Z,22.60
2023-01-21T02:47:24.236Z,21.30
2023-01-21T02:49:57.119Z,22.10
2023-01-21T02:52:24.724Z,22.30
2023-01-21T02:54:59.313Z,23.40
2023-01-21T02:58:00.381Z,22.70
2023-01-21T03:00:30.312Z,19.60
2023-01-21T03:03:21.307Z,21.50
2023-01-21T03:06:13.177Z,21.30
2023-01-21T03:08:49.398Z,22.30
2023-01-21T03:11:17.177Z,20.90
2023-01-21T03:14:08.477Z,19.40
2023-01-21T03:16:58.608Z,20.80
2023-01-21T03:19:31.313Z,21.70
2023-01-21T03:21:58.979Z,20.20
2023-01-21T03:24:25.845Z,20.20
2023-01-21T03:26:52.689Z,22.00
2023-01-21T03:29:22.266Z,20.50
2023-01-21T03:31:51.506Z,21.30
2023-01-21T03:34:18.287Z,20.70
2023-01-21T03:36:49.021Z,20.50
2023-01-21T03:39:21.277Z,21.50
2023-01-21T03:41:48.154Z,20.40
2023-01-21T03:44:14.884Z,20.50
2023-01-21T03:46:46.222Z,20.00
2023-01-21T03:49:19.682Z,20.10
2023-01-21T03:51:54.983Z,20.00
2023-01-21T03:54:22.152Z,20.60
2023-01-21T03:56:48.913Z,19.90
2023-01-21T03:59:15.739Z,18.60
2023-01-21T04:01:42.486Z,19.50
2023-01-21T04:04:09.646Z,18.70
2023-01-21T04:06:37.310Z,18.90
2023-01-21T04:09:05.040Z,17.20
2023-01-21T04:11:31.897Z,17.60
2023-01-21T04:13:58.661Z,19.20
2023-01-21T04:16:25.541Z,19.70
2023-01-21T04:18:52.423Z,18.60
2023-01-21T04:21:19.266Z,17.40
2023-01-21T04:23:45.987Z,16.50
2023-01-21T04:26:12.792Z,18.70
2023-01-21T04:28:39.521Z,18.10
2023-01-21T04:31:06.317Z,18.80
2023-01-21T04:33:33.153Z,18.30
2023-01-21T04:36:00.529Z,18.60
2023-01-21T04:38:27.600Z,18.80
2023-01-21T04:40:54.398Z,19.10
2023-01-21T04:43:21.361Z,17.40
2023-01-21T04:45:48.328Z,16.80
2023-01-21T04:48:15.153Z,17.60
2023-01-21T04:50:41.915Z,19.20
2023-01-21T04:53:08.660Z,20.40
2023-01-21T04:55:35.471Z,18.90
2023-01-21T04:58:02.199Z,17.50
2023-01-21T05:00:29.014Z,16.40
2023-01-21T05:02:55.775Z,17.70
2023-01-21T05:05:22.610Z,17.40
2023-01-21T05:07:53.066Z,18.30
2023-01-21T05:10:19.970Z,16.90
2023-01-21T05:12:46.792Z,16.90
2023-01-21T05:15:13.698Z,17.50
2023-01-21T05:17:40.564Z,17.20
2023-01-21T05:20:07.879Z,16.40
2023-01-21T05:22:34.646Z,16.70
2023-01-21T05:25:01.677Z,17.20
2023-01-21T05:27:28.416Z,17.40
2023-01-21T05:29:57.116Z,18.40
2023-01-21T05:32:24.038Z,16.40
2023-01-21T05:34:50.893Z,16.00
2023-01-21T05:37:17.654Z,17.60
2023-01-21T05:39:44.761Z,18.00
2023-01-21T05:42:12.454Z,18.90
2023-01-21T05:44:39.273Z,15.60
2023-01-21T05:47:07.614Z,15.40
2023-01-21T05:49:35.052Z,15.10
2023-01-21T05:52:01.966Z,16.10
2023-01-21T05:54:28.732Z,14.90
2023-01-21T05:56:55.599Z,15.20
2023-01-21T05:59:22.488Z,15.90
2023-01-21T06:01:49.332Z,17.70
2023-01-21T06:04:16.113Z,17.10
2023-01-21T06:06:42.911Z,17.80
2023-01-21T06:09:09.817Z,16.30
2023-01-21T06:11:36.545Z,15.70
2023-01-21T06:14:03.372Z,17.40
2023-01-21T06:16:30.148Z,16.90
2023-01-21T06:18:56.893Z,16.80
2023-01-21T06:21:23.763Z,15.40
2023-01-21T06:23:50.564Z,13.70
2023-01-21T06:26:17.280Z,13.90
2023-01-21T06:28:44.088Z,15.90
2023-01-21T06:31:11.085Z,16.90
2023-01-21T06:33:37.913Z,14.50
2023-01-21T06:36:05.001Z,14.30
2023-01-21T06:38:36.089Z,14.90
2023-01-21T06:41:03.395Z,14.80
2023-01-21T06:43:30.305Z,16.50
2023-01-21T06:45:57.078Z,16.60
2023-01-21T06:48:23.898Z,14.80
2023-01-21T06:50:50.751Z,15.40
2023-01-21T06:53:17.677Z,14.70
2023-01-21T06:55:44.579Z,16.50
2023-01-21T06:58:11.573Z,14.70
2023-01-21T07:00:38.353Z,16.40
2023-01-21T07:03:05.230Z,15.00
2023-01-21T07:05:32.050Z,16.40
2023-01-21T07:07:59.692Z,16.70
2023-01-21T07:10:26.734Z,16.00
2023-01-21T07:12:53.604Z,18.20
2023-01-21T07:15:20.379Z,14.90
2023-01-21T07:17:47.170Z,15.40
2023-01-21T07:20:14.036Z,15.30
2023-01-21T07:22:40.839Z,16.70
2023-01-21T07:25:08.222Z,15.60
2023-01-21T07:27:35.087Z,15.50
2023-01-21T07:30:01.880Z,16.30
2023-01-21T07:32:28.753Z,17.00
2023-01-21T07:34:55.485Z,15.60
2023-01-21T07:37:22.331Z,17.00
2023-01-21T07:39:49.088Z,18.70
2023-01-21T07:42:15.913Z,17.20
2023-01-21T07:44:42.834Z,17.70
2023-01-21T07:47:10.651Z,20.50
2023-01-21T07:49:37.708Z,18.60
2023-01-21T07:52:04.614Z,20.80
2023-01-21T07:54:31.452Z,19.70
2023-01-21T07:56:58.590Z,19.40
2023-01-21T07:59:25.389Z,21.10
2023-01-21T08:01:52.530Z,16.80
2023-01-21T08:04:19.518Z,28.80
2023-01-21T08:06:46.292Z,29.60
2023-01-21T08:09:13.086Z,25.40
2023-01-21T08:11:39.957Z,19.20
2023-01-21T08:14:06.764Z,16.10
2023-01-21T08:16:33.682Z,16.60
2023-01-21T08:19:00.530Z,16.50
2023-01-21T08:21:27.471Z,16.80
2023-01-21T08:23:54.246Z,15.10
2023-01-21T08:26:20.996Z,16.60
2023-01-21T08:28:47.969Z,17.70
2023-01-21T08:31:14.839Z,18.90
2023-01-21T08:33:42.374Z,17.00
2023-01-21T08:36:09.611Z,18.40
2023-01-21T08:38:36.764Z,19.30
2023-01-21T08:41:04.560Z,18.70
2023-01-21T08:43:31.385Z,20.70
2023-01-21T08:45:59.417Z,18.30
2023-01-21T08:48:26.312Z,19.30
2023-01-21T08:50:53.106Z,19.10
2023-01-21T08:53:20.004Z,21.60
2023-01-21T08:55:46.796Z,22.00
2023-01-21T08:58:13.539Z,20.50
2023-01-21T09:00:41.986Z,19.90
2023-01-21T09:03:08.829Z,21.00
2023-01-21T09:05:35.729Z,20.70
2023-01-21T09:08:02.567Z,20.90
2023-01-21T09:10:48.255Z,22.10
2023-01-21T09:13:16.504Z,23.60
2023-01-21T09:15:43.594Z,19.90
2023-01-21T09:18:10.733Z,18.60
2023-01-21T09:20:38.059Z,17.80
2023-01-21T09:23:24.364Z,17.90
2023-01-21T09:26:01.477Z,18.40
2023-01-21T09:28:28.237Z,15.90
2023-01-21T09:31:02.971Z,15.90
2023-01-21T09:33:30.595Z,16.50
2023-01-21T09:35:58.649Z,17.60
2023-01-21T09:38:26.033Z,16.90
2023-01-21T09:40:53.025Z,21.40
2023-01-21T09:43:34.334Z,21.60
2023-01-21T09:46:04.145Z,18.80
2023-01-21T09:48:34.217Z,17.60
2023-01-21T09:51:03.348Z,16.90
2023-01-21T09:53:38.151Z,18.20
2023-01-21T09:56:05.085Z,17.50
2023-01-21T09:58:38.821Z,17.50
2023-01-21T10:01:09.415Z,18.10
2023-01-21T10:03:56.722Z,17.50
2023-01-21T12:22:24.626Z,17.60
2023-01-21T12:24:54.377Z,17.20
2023-01-21T12:27:36.560Z,18.10
2023-01-21T12:30:22.412Z,18.30
2023-01-21T12:32:51.516Z,16.70
2023-01-21T12:35:29.635Z,18.00
2023-01-21T12:38:00.719Z,21.80
2023-01-21T12:40:31.354Z,15.30
2023-01-21T12:43:06.009Z,16.90
2023-01-21T12:45:46.367Z,18.40
2023-01-21T12:48:42.627Z,17.50
2023-01-21T12:51:11.604Z,18.50
2023-01-21T12:56:24.949Z,17.30
2023-01-21T12:58:58.051Z,17.50
2023-01-21T13:01:55.016Z,16.90
2023-01-21T13:04:31.754Z,17.50
2023-01-21T13:07:06.156Z,17.70
2023-01-21T13:09:46.556Z,18.90
2023-01-21T13:12:24.521Z,20.40
2023-01-21T13:15:02.760Z,19.80
2023-01-21T13:17:32.215Z,22.00
2023-01-21T13:19:59.476Z,19.90
2023-01-21T13:22:42.939Z,20.50
2023-01-21T13:25:37.819Z,21.00
2023-01-21T13:28:30.799Z,18.70
2023-01-21T13:31:19.729Z,19.30
2023-01-21T13:33:52.939Z,21.10
2023-01-21T13:36:58.896Z,19.20
2023-01-21T13:39:50.742Z,20.80
2023-01-21T13:42:20.729Z,18.00
2023-01-21T13:44:52.363Z,19.60
2023-01-21T13:48:07.893Z,18.90
2023-01-21T13:50:53.844Z,19.50
2023-01-21T13:53:58.808Z,18.20
2023-01-21T13:56:33.226Z,17.90
2023-01-21T13:59:02.040Z,18.40
2023-01-21T14:01:35.623Z,17.40
2023-01-21T14:04:10.021Z,19.10
2023-01-21T14:06:46.096Z,20.70
2023-01-21T14:09:25.595Z,18.30
2023-01-21T14:12:02.125Z,19.80
2023-01-21T14:14:45.737Z,18.00
2023-01-21T14:17:31.422Z,18.80
2023-01-21T14:19:58.273Z,18.20
2023-01-21T14:22:28.180Z,19.30
2023-01-21T14:25:19.468Z,20.90
2023-01-21T14:28:48.294Z,20.60
2023-01-21T14:31:21.440Z,18.70
2023-01-21T14:33:58.053Z,18.40
2023-01-21T14:37:16.612Z,20.50
2023-01-21T14:40:06.780Z,23.40
2023-01-21T14:42:49.264Z,19.20
2023-01-21T14:45:20.535Z,21.30
2023-01-21T14:47:52.363Z,21.10
2023-01-21T14:50:43.185Z,20.70
2023-01-21T14:53:28.096Z,21.90
2023-01-21T14:56:28.925Z,21.80
2023-01-21T14:59:04.265Z,19.10
2023-01-21T15:01:42.133Z,23.50
2023-01-21T15:04:25.750Z,20.80
2023-01-21T15:06:55.156Z,19.30
2023-01-21T15:09:26.040Z,20.40
2023-01-21T15:11:57.095Z,25.50
2023-01-21T15:14:45.708Z,21.10
2023-01-21T15:17:44.916Z,19.10
2023-01-21T15:20:43.112Z,21.30
2023-01-21T15:23:29.000Z,19.90
2023-01-21T15:26:11.240Z,18.30
2023-01-21T15:28:53.665Z,18.80
2023-01-21T15:31:20.453Z,21.80
2023-01-21T15:33:58.786Z,23.00
2023-01-21T15:36:31.880Z,22.90
2023-01-21T15:39:02.355Z,21.70
2023-01-21T15:41:39.086Z,19.70
2023-01-21T15:44:34.305Z,20.30
2023-01-21T15:47:27.116Z,19.40
2023-01-21T15:50:13.003Z,18.30
2023-01-21T15:52:49.033Z,18.70
2023-01-21T15:55:44.609Z,19.60
2023-01-21T15:58:35.179Z,18.80
2023-01-21T16:01:10.655Z,17.80
2023-01-21T16:03:47.566Z,19.30
2023-01-21T16:07:02.163Z,18.80
2023-01-21T18:20:04.833Z,21.80
2023-01-21T18:22:31.649Z,21.50
2023-01-21T18:25:00.770Z,22.30
2023-01-21T18:27:27.512Z,21.40
2023-01-21T18:29:54.255Z,21.50
2023-01-21T18:32:21.296Z,20.80
2023-01-21T18:34:49.679Z,22.90
2023-01-21T18:37:17.433Z,21.30
2023-01-21T18:39:44.383Z,21.20
2023-01-21T18:42:15.526Z,20.40
2023-01-21T18:44:42.351Z,20.70
2023-01-21T18:47:11.112Z,24.00
2023-01-21T18:49:38.007Z,23.30
2023-01-21T18:52:04.948Z,22.00
2023-01-21T18:54:32.403Z,23.20
2023-01-21T18:56:59.246Z,24.50
2023-01-21T18:59:26.515Z,25.00
2023-01-21T19:01:53.470Z,23.40
2023-01-21T19:04:20.770Z,22.90
2023-01-21T19:06:49.798Z,23.00
2023-01-21T19:09:22.506Z,21.50
2023-01-21T19:11:49.307Z,23.30
2023-01-21T19:14:15.920Z,22.50
2023-01-21T19:16:43.266Z,21.90
2023-01-21T19:19:15.440Z,22.60
2023-01-21T19:21:42.840Z,21.90
2023-01-21T19:24:11.897Z,19.70
2023-01-21T19:26:39.489Z,22.40
2023-01-21T19:29:07.307Z,19.70
2023-01-21T19:31:34.515Z,19.10
2023-01-21T19:34:01.288Z,18.60
2023-01-21T19:36:29.412Z,20.20
2023-01-21T19:38:57.791Z,21.90
2023-01-21T19:41:24.731Z,20.40
2023-01-21T19:43:51.572Z,19.30
2023-01-21T19:46:18.705Z,20.50
2023-01-21T19:48:49.824Z,20.20
2023-01-21T19:51:16.431Z,20.00
2023-01-21T19:53:44.812Z,19.50
2023-01-21T19:56:14.040Z,20.00
2023-01-21T19:58:41.554Z,21.00
2023-01-21T20:01:09.625Z,22.80
2023-01-21T20:03:36.663Z,21.80
2023-01-21T20:06:03.684Z,20.40
2023-01-21T20:08:31.367Z,21.80
2023-01-21T20:10:58.000Z,22.10
2023-01-21T20:13:25.667Z,20.50
2023-01-21T20:15:52.422Z,22.60
2023-01-21T20:18:26.429Z,21.90
2023-01-21T20:20:53.277Z,20.10
2023-01-21T20:23:21.537Z,20.50
2023-01-21T20:25:49.833Z,21.80
2023-01-21T20:28:17.230Z,22.00
2023-01-21T20:30:44.433Z,21.90
2023-01-21T20:33:12.074Z,22.40
2023-01-21T20:35:39.308Z,23.70
2023-01-21T20:38:06.275Z,23.00
2023-01-21T20:40:35.389Z,21.20
2023-01-21T20:43:02.827Z,23.10
2023-01-21T20:45:32.660Z,23.70
2023-01-21T20:48:02.185Z,22.60
2023-01-21T20:50:33.048Z,22.80
2023-01-21T20:52:59.833Z,21.70
2023-01-21T20:55:27.929Z,23.50
2023-01-21T20:57:55.660Z,23.90
2023-01-21T21:00:23.177Z,22.70
2023-01-21T21:02:49.869Z,20.60
2023-01-21T21:05:17.402Z,20.90
2023-01-21T21:07:44.722Z,21.00
2023-01-21T21:10:24.628Z,21.90
2023-01-21T21:12:51.733Z,20.80
2023-01-21T21:15:19.896Z,20.50
2023-01-21T21:17:47.240Z,21.80
2023-01-21T21:20:19.569Z,21.00
2023-01-21T21:22:47.634Z,20.50
2023-01-21T21:25:18.257Z,21.60
2023-01-21T21:27:45.264Z,19.10
2023-01-21T21:30:13.339Z,20.80
2023-01-21T21:32:41.271Z,21.50
2023-01-21T21:35:23.148Z,21.60
2023-01-21T21:37:50.762Z,20.10
2023-01-21T21:40:18.744Z,21.50
2023-01-21T21:43:04.579Z,21.10
2023-01-21T21:45:31.519Z,22.30
2023-01-21T21:48:17.073Z,22.00
2023-01-21T21:50:44.034Z,22.00
2023-01-21T21:53:10.880Z,21.60
2023-01-21T21:55:37.514Z,21.30
2023-01-21T21:58:05.360Z,21.10
2023-01-21T22:00:31.971Z,21.20
2023-01-21T22:03:01.861Z,21.40
2023-01-21T22:05:29.719Z,20.60
2023-01-21T22:07:56.335Z,21.60
2023-01-21T22:10:23.165Z,20.10
2023-01-21T22:12:50.236Z,18.90
2023-01-21T22:15:17.125Z,19.50
2023-01-21T22:17:44.219Z,20.50
2023-01-21T22:20:11.853Z,19.90
2023-01-21T22:22:39.366Z,18.70
2023-01-21T22:25:06.997Z,18.60
2023-01-21T22:27:33.739Z,18.40
2023-01-21T22:30:01.576Z,18.00
2023-01-21T22:32:28.528Z,18.10
2023-01-21T22:34:55.390Z,17.20
2023-01-21T22:37:22.856Z,16.90
2023-01-21T22:39:49.725Z,17.70
2023-01-21T22:42:16.348Z,17.70
2023-01-21T22:44:42.916Z,17.60
2023-01-21T22:47:09.872Z,17.00
2023-01-21T22:49:36.960Z,16.80
2023-01-21T22:52:03.759Z,19.70
2023-01-21T22:54:30.744Z,17.50
2023-01-21T22:56:57.593Z,17.50
2023-01-21T22:59:24.157Z,18.20
2023-01-21T23:01:50.871Z,18.50
2023-01-21T23:04:18.126Z,18.90
2023-01-21T23:06:47.044Z,19.30
2023-01-21T23:11:44.177Z,20.60
2023-01-21T23:14:10.809Z,19.50
2023-01-21T23:16:37.667Z,20.60
2023-01-21T23:19:04.465Z,21.00
2023-01-21T23:21:31.545Z,19.30
2023-01-21T23:23:58.452Z,22.20
2023-01-21T23:26:25.155Z,20.20
2023-01-21T23:28:55.486Z,18.70
2023-01-21T23:31:22.539Z,19.60
2023-01-21T23:33:50.465Z,17.40
2023-01-21T23:36:17.417Z,18.00
2023-01-21T23:38:44.912Z,17.60
2023-01-21T23:41:13.044Z,17.20
2023-01-21T23:43:39.598Z,15.80
2023-01-21T23:46:08.271Z,16.50
2023-01-21T23:48:35.522Z,15.90
2023-01-21T23:51:03.431Z,15.70
2023-01-21T23:53:30.850Z,17.90
2023-01-21T23:56:13.875Z,16.20
2023-01-21T23:58:40.620Z,16.80
